KTOA/TOA METAR and TAF weather

Enter ICAO airport designator
Station Type Date Time Source
KTOA METAR 2022/01/27 23:48 UTC NOAA

KTOA 272348Z 28008KT 10SM SKC 16/11 A3015


Station Type Date Time Source
KTOA Decoded METAR 2022/01/27 23:48 UTC NOAA

Torrance, Zamperini Field Airport, CA, United States (KTOA) 33-48N 118-20W
Jan 27, 2022 - 06:48 PM EST / 2022.01.27 2348 UTC
Wind: from the W (280 degrees) at 9 MPH (8 KT):0
Visibility: 10 mile(s):0
Sky conditions: clear
Temperature: 60 F (16 C)
Dew Point: 51 F (11 C)
Relative Humidity: 72%
Pressure (altimeter): 30.15 in. Hg (1020 hPa)
ob: KTOA 272348Z 28008KT 10SM SKC 16/11 A3015
cycle: 0

Station Type Date Time Source
KTOA TAF UTC NOAA

Error!

Example: see airport list